Terminal Aerodrome Forecast
Issued by NWS Duluth, MN

Home | Current Version | Previous Version | Text Only | Print | Product List | Glossary On
Versions: 1 2 3 4 5 6 7 8 9 10 11 12 13 14 15 16 17 18 19 20 21 22 23 24 25 26 27 28 29 30 31
000
FTUS43 KDLH 251510 AAC
TAFDLH
TAF AMD
KDLH 251510Z 2515/2612 33007KT P6SM -RA FEW010 OVC025
     FM251530 33009G20KT 5SM -RA BR SCT010 OVC025
     FM251700 31010G17KT P6SM -SHRA SCT015 OVC020
     FM252000 32012G22KT P6SM -SHRA SCT025 BKN035
     FM260100 32009KT P6SM SCT050 BKN070
     FM260300 32005KT P6SM SCT070=

USA.gov is the U.S. government's official web portal to all federal, state and local government web resources and services.